Terminal Aerodrome Forecast
Issued by NWS Blacksburg, VA

Home | Current Version | Previous Version | Text Only | Print | Product List | Glossary On
Versions: 1 2 3 4 5 6 7 8 9 10 11 12 13 14 15 16 17 18 19 20 21 22 23 24 25 26 27 28 29 30 31 32 33 34 35 36 37 38
000
FTUS41 KRNK 261734
TAFROA
TAF
KROA 261734Z 2618/2718 13008KT P6SM SCT050 BKN100
     FM262000 22010G18KT P6SM BKN050
     FM270100 30012G22KT 4SM -SHRA OVC035
     FM270600 31008KT 5SM -RA OVC020
     FM271400 33008KT 3SM -RA OVC015=

USA.gov is the U.S. government's official web portal to all federal, state and local government web resources and services.